sensor_id;sensor_type;location;lat;lon;timestamp;P1;durP1;ratioP1;P2;durP2;ratioP2
3613;SDS011;1821;50.936;6.854;2023-04-15T00:00:06;7.95;;;5.07;;
3613;SDS011;1821;50.936;6.854;2023-04-15T00:00:50;9.45;;;5.75;;
3613;SDS011;1821;50.936;6.854;2023-04-15T00:01:32;9.98;;;5.63;;
3613;SDS011;1821;50.936;6.854;2023-04-15T00:02:17;10.25;;;5.38;;
3613;SDS011;1821;50.936;6.854;2023-04-15T00:03:02;10.00;;;5.70;;
3613;SDS011;1821;50.936;6.854;2023-04-15T00:03:46;9.88;;;5.70;;
3613;SDS011;1821;50.936;6.854;2023-04-15T00:04:28;8.27;;;5.20;;
3613;SDS011;1821;50.936;6.854;2023-04-15T00:05:12;11.15;;;5.72;;
3613;SDS011;1821;50.936;6.854;2023-04-15T00:05:53;11.55;;;6.53;;
3613;SDS011;1821;50.936;6.854;2023-04-15T00:06:36;9.20;;;6.03;;
3613;SDS011;1821;50.936;6.854;2023-04-15T00:07:18;7.57;;;5.82;;
3613;SDS011;1821;50.936;6.854;2023-04-15T00:08:02;8.65;;;6.32;;
3613;SDS011;1821;50.936;6.854;2023-04-15T00:08:44;8.35;;;5.65;;
3613;SDS011;1821;50.936;6.854;2023-04-15T00:09:29;8.82;;;6.22;;
3613;SDS011;1821;50.936;6.854;2023-04-15T00:10:11;8.55;;;6.30;;
3613;SDS011;1821;50.936;6.854;2023-04-15T00:10:54;9.45;;;6.25;;
3613;SDS011;1821;50.936;6.854;2023-04-15T00:11:36;8.77;;;6.30;;
3613;SDS011;1821;50.936;6.854;2023-04-15T00:12:18;9.40;;;5.80;;
3613;SDS011;1821;50.936;6.854;2023-04-15T00:13:00;11.23;;;6.22;;
3613;SDS011;1821;50.936;6.854;2023-04-15T00:13:43;9.50;;;6.00;;
3613;SDS011;1821;50.936;6.854;2023-04-15T00:14:25;11.10;;;5.82;;
3613;SDS011;1821;50.936;6.854;2023-04-15T00:15:08;9.55;;;6.05;;
3613;SDS011;1821;50.936;6.854;2023-04-15T00:15:50;11.18;;;5.50;;
3613;SDS011;1821;50.936;6.854;2023-04-15T00:16:32;10.23;;;5.85;;
3613;SDS011;1821;50.936;6.854;2023-04-15T00:17:14;10.02;;;6.15;;
3613;SDS011;1821;50.936;6.854;2023-04-15T00:17:59;8.52;;;5.90;;
3613;SDS011;1821;50.936;6.854;2023-04-15T00:18:41;8.73;;;5.97;;
3613;SDS011;1821;50.936;6.854;2023-04-15T00:19:23;9.15;;;6.75;;
3613;SDS011;1821;50.936;6.854;2023-04-15T00:20:05;8.77;;;6.60;;
3613;SDS011;1821;50.936;6.854;2023-04-15T00:20:47;11.65;;;6.63;;
3613;SDS011;1821;50.936;6.854;2023-04-15T00:21:29;10.40;;;6.50;;
3613;SDS011;1821;50.936;6.854;2023-04-15T00:22:11;9.88;;;6.32;;
3613;SDS011;1821;50.936;6.854;2023-04-15T00:22:53;11.27;;;6.10;;
3613;SDS011;1821;50.936;6.854;2023-04-15T00:23:35;10.90;;;6.13;;
3613;SDS011;1821;50.936;6.854;2023-04-15T00:24:17;10.80;;;5.75;;
3613;SDS011;1821;50.936;6.854;2023-04-15T00:24:59;12.20;;;5.53;;
3613;SDS011;1821;50.936;6.854;2023-04-15T00:25:41;10.65;;;5.47;;
3613;SDS011;1821;50.936;6.854;2023-04-15T00:26:23;7.60;;;5.10;;
3613;SDS011;1821;50.936;6.854;2023-04-15T00:27:05;7.68;;;5.07;;
3613;SDS011;1821;50.936;6.854;2023-04-15T00:27:47;8.57;;;5.63;;
3613;SDS011;1821;50.936;6.854;2023-04-15T00:28:29;8.45;;;5.35;;
3613;SDS011;1821;50.936;6.854;2023-04-15T00:29:11;8.73;;;5.65;;
3613;SDS011;1821;50.936;6.854;2023-04-15T00:29:53;8.43;;;5.40;;
3613;SDS011;1821;50.936;6.854;2023-04-15T00:30:35;8.70;;;4.50;;
3613;SDS011;1821;50.936;6.854;2023-04-15T00:31:17;11.10;;;5.25;;
3613;SDS011;1821;50.936;6.854;2023-04-15T00:31:59;9.35;;;5.30;;
3613;SDS011;1821;50.936;6.854;2023-04-15T00:32:41;8.40;;;5.45;;
3613;SDS011;1821;50.936;6.854;2023-04-15T00:33:23;8.07;;;5.68;;
3613;SDS011;1821;50.936;6.854;2023-04-15T00:34:05;7.82;;;5.47;;
3613;SDS011;1821;50.936;6.854;2023-04-15T00:34:47;8.65;;;5.60;;
3613;SDS011;1821;50.936;6.854;2023-04-15T00:35:30;10.38;;;5.15;;
3613;SDS011;1821;50.936;6.854;2023-04-15T00:36:16;9.68;;;5.30;;
3613;SDS011;1821;50.936;6.854;2023-04-15T00:36:58;8.93;;;5.80;;
3613;SDS011;1821;50.936;6.854;2023-04-15T00:37:40;9.65;;;5.30;;
3613;SDS011;1821;50.936;6.854;2023-04-15T00:38:25;10.93;;;5.68;;
3613;SDS011;1821;50.936;6.854;2023-04-15T00:39:07;10.10;;;4.97;;
3613;SDS011;1821;50.936;6.854;2023-04-15T00:39:49;10.23;;;6.10;;
3613;SDS011;1821;50.936;6.854;2023-04-15T00:40:31;12.35;;;5.45;;
3613;SDS011;1821;50.936;6.854;2023-04-15T00:41:13;8.48;;;5.60;;
3613;SDS011;1821;50.936;6.854;2023-04-15T00:41:55;10.00;;;5.72;;
3613;SDS011;1821;50.936;6.854;2023-04-15T00:42:38;9.13;;;5.70;;
3613;SDS011;1821;50.936;6.854;2023-04-15T00:43:22;11.35;;;6.28;;
3613;SDS011;1821;50.936;6.854;2023-04-15T00:44:06;8.15;;;4.80;;
3613;SDS011;1821;50.936;6.854;2023-04-15T00:44:48;7.95;;;4.88;;
3613;SDS011;1821;50.936;6.854;2023-04-15T00:45:32;8.90;;;5.10;;
3613;SDS011;1821;50.936;6.854;2023-04-15T00:46:14;8.10;;;4.70;;
3613;SDS011;1821;50.936;6.854;2023-04-15T00:46:58;6.38;;;4.70;;
3613;SDS011;1821;50.936;6.854;2023-04-15T00:47:41;9.25;;;4.82;;
3613;SDS011;1821;50.936;6.854;2023-04-15T00:48:24;9.63;;;5.00;;
3613;SDS011;1821;50.936;6.854;2023-04-15T00:49:07;8.43;;;5.28;;
3613;SDS011;1821;50.936;6.854;2023-04-15T00:49:49;9.23;;;4.93;;
3613;SDS011;1821;50.936;6.854;2023-04-15T00:50:31;10.10;;;5.22;;
3613;SDS011;1821;50.936;6.854;2023-04-15T00:51:13;8.30;;;5.13;;
3613;SDS011;1821;50.936;6.854;2023-04-15T00:51:56;9.15;;;5.00;;
3613;SDS011;1821;50.936;6.854;2023-04-15T00:52:38;8.10;;;4.70;;
3613;SDS011;1821;50.936;6.854;2023-04-15T00:53:21;7.90;;;5.20;;
3613;SDS011;1821;50.936;6.854;2023-04-15T00:54:03;7.93;;;5.45;;
3613;SDS011;1821;50.936;6.854;2023-04-15T00:54:46;8.05;;;4.80;;
3613;SDS011;1821;50.936;6.854;2023-04-15T00:55:28;8.77;;;4.85;;
3613;SDS011;1821;50.936;6.854;2023-04-15T00:56:10;6.95;;;5.10;;
3613;SDS011;1821;50.936;6.854;2023-04-15T00:56:54;8.55;;;4.80;;
3613;SDS011;1821;50.936;6.854;2023-04-15T00:57:37;9.32;;;5.07;;
3613;SDS011;1821;50.936;6.854;2023-04-15T00:58:19;8.13;;;5.38;;
3613;SDS011;1821;50.936;6.854;2023-04-15T00:59:02;8.70;;;5.00;;
3613;SDS011;1821;50.936;6.854;2023-04-15T00:59:45;9.07;;;5.20;;
3613;SDS011;1821;50.936;6.854;2023-04-15T01:00:29;11.27;;;5.32;;
3613;SDS011;1821;50.936;6.854;2023-04-15T01:01:11;8.88;;;5.55;;
3613;SDS011;1821;50.936;6.854;2023-04-15T01:01:53;9.25;;;5.40;;
3613;SDS011;1821;50.936;6.854;2023-04-15T01:02:36;9.48;;;5.60;;
3613;SDS011;1821;50.936;6.854;2023-04-15T01:03:19;9.95;;;5.03;;
3613;SDS011;1821;50.936;6.854;2023-04-15T01:04:02;9.48;;;4.95;;
3613;SDS011;1821;50.936;6.854;2023-04-15T01:04:44;8.70;;;5.18;;
3613;SDS011;1821;50.936;6.854;2023-04-15T01:05:29;9.32;;;5.25;;
3613;SDS011;1821;50.936;6.854;2023-04-15T01:06:12;7.30;;;5.00;;
3613;SDS011;1821;50.936;6.854;2023-04-15T01:06:54;9.38;;;5.10;;
3613;SDS011;1821;50.936;6.854;2023-04-15T01:07:36;9.82;;;5.30;;
3613;SDS011;1821;50.936;6.854;2023-04-15T01:08:19;10.25;;;5.32;;
3613;SDS011;1821;50.936;6.854;2023-04-15T01:09:00;8.70;;;5.38;;
3613;SDS011;1821;50.936;6.854;2023-04-15T01:09:45;10.63;;;5.65;;
3613;SDS011;1821;50.936;6.854;2023-04-15T01:10:28;9.50;;;5.18;;
3613;SDS011;1821;50.936;6.854;2023-04-15T01:11:12;7.60;;;4.85;;
3613;SDS011;1821;50.936;6.854;2023-04-15T01:11:54;7.68;;;5.00;;
3613;SDS011;1821;50.936;6.854;2023-04-15T01:12:37;8.05;;;4.90;;
3613;SDS011;1821;50.936;6.854;2023-04-15T01:13:19;7.55;;;5.20;;
3613;SDS011;1821;50.936;6.854;2023-04-15T01:14:04;6.30;;;4.70;;
3613;SDS011;1821;50.936;6.854;2023-04-15T01:14:46;7.03;;;4.47;;
3613;SDS011;1821;50.936;6.854;2023-04-15T01:15:27;8.95;;;4.93;;
3613;SDS011;1821;50.936;6.854;2023-04-15T01:16:09;7.70;;;5.03;;
3613;SDS011;1821;50.936;6.854;2023-04-15T01:16:53;7.30;;;5.10;;
3613;SDS011;1821;50.936;6.854;2023-04-15T01:17:35;7.30;;;5.15;;
3613;SDS011;1821;50.936;6.854;2023-04-15T01:18:18;7.15;;;4.90;;
3613;SDS011;1821;50.936;6.854;2023-04-15T01:19:01;8.00;;;5.15;;
3613;SDS011;1821;50.936;6.854;2023-04-15T01:19:43;10.63;;;5.10;;
3613;SDS011;1821;50.936;6.854;2023-04-15T01:20:28;7.68;;;4.90;;
3613;SDS011;1821;50.936;6.854;2023-04-15T01:21:10;9.75;;;5.57;;
3613;SDS011;1821;50.936;6.854;2023-04-15T01:21:52;7.07;;;4.85;;
3613;SDS011;1821;50.936;6.854;2023-04-15T01:22:35;6.97;;;5.13;;
3613;SDS011;1821;50.936;6.854;2023-04-15T01:23:20;9.73;;;5.10;;
3613;SDS011;1821;50.936;6.854;2023-04-15T01:24:08;7.97;;;4.70;;
3613;SDS011;1821;50.936;6.854;2023-04-15T01:24:58;7.40;;;4.55;;
3613;SDS011;1821;50.936;6.854;2023-04-15T01:25:49;7.72;;;5.07;;
3613;SDS011;1821;50.936;6.854;2023-04-15T01:26:33;8.00;;;4.63;;
3613;SDS011;1821;50.936;6.854;2023-04-15T01:27:16;5.60;;;4.70;;
3613;SDS011;1821;50.936;6.854;2023-04-15T01:27:58;5.88;;;4.43;;
3613;SDS011;1821;50.936;6.854;2023-04-15T01:28:40;7.97;;;4.72;;
3613;SDS011;1821;50.936;6.854;2023-04-15T01:29:22;10.93;;;5.50;;
3613;SDS011;1821;50.936;6.854;2023-04-15T01:30:05;7.32;;;4.90;;
3613;SDS011;1821;50.936;6.854;2023-04-15T01:30:48;8.82;;;4.82;;
3613;SDS011;1821;50.936;6.854;2023-04-15T01:31:30;7.03;;;4.90;;
3613;SDS011;1821;50.936;6.854;2023-04-15T01:32:12;7.68;;;4.82;;
3613;SDS011;1821;50.936;6.854;2023-04-15T01:32:54;7.97;;;4.60;;
3613;SDS011;1821;50.936;6.854;2023-04-15T01:33:37;9.80;;;5.47;;
3613;SDS011;1821;50.936;6.854;2023-04-15T01:34:20;6.32;;;4.82;;
3613;SDS011;1821;50.936;6.854;2023-04-15T01:35:04;8.45;;;5.20;;
3613;SDS011;1821;50.936;6.854;2023-04-15T01:35:47;7.82;;;4.90;;
3613;SDS011;1821;50.936;6.854;2023-04-15T01:36:29;7.43;;;4.90;;
3613;SDS011;1821;50.936;6.854;2023-04-15T01:37:11;8.50;;;5.03;;
3613;SDS011;1821;50.936;6.854;2023-04-15T01:37:53;9.00;;;5.00;;
3613;SDS011;1821;50.936;6.854;2023-04-15T01:38:42;7.25;;;4.85;;
3613;SDS011;1821;50.936;6.854;2023-04-15T01:39:24;8.65;;;5.30;;
3613;SDS011;1821;50.936;6.854;2023-04-15T01:40:06;9.15;;;5.70;;
3613;SDS011;1821;50.936;6.854;2023-04-15T01:40:49;7.25;;;5.20;;
3613;SDS011;1821;50.936;6.854;2023-04-15T01:41:31;8.43;;;5.40;;
3613;SDS011;1821;50.936;6.854;2023-04-15T01:42:13;7.18;;;5.00;;
3613;SDS011;1821;50.936;6.854;2023-04-15T01:42:55;8.05;;;4.70;;
3613;SDS011;1821;50.936;6.854;2023-04-15T01:43:36;7.78;;;5.07;;
3613;SDS011;1821;50.936;6.854;2023-04-15T01:44:18;9.13;;;5.20;;
3613;SDS011;1821;50.936;6.854;2023-04-15T01:45:00;6.78;;;4.30;;
3613;SDS011;1821;50.936;6.854;2023-04-15T01:45:42;7.95;;;4.35;;
3613;SDS011;1821;50.936;6.854;2023-04-15T01:46:24;9.38;;;5.10;;
3613;SDS011;1821;50.936;6.854;2023-04-15T01:47:07;7.10;;;4.68;;
3613;SDS011;1821;50.936;6.854;2023-04-15T01:47:48;9.27;;;4.63;;
3613;SDS011;1821;50.936;6.854;2023-04-15T01:48:32;9.00;;;4.40;;
3613;SDS011;1821;50.936;6.854;2023-04-15T01:49:14;8.00;;;4.70;;
3613;SDS011;1821;50.936;6.854;2023-04-15T01:49:57;7.93;;;5.07;;
3613;SDS011;1821;50.936;6.854;2023-04-15T01:50:39;9.30;;;5.38;;
3613;SDS011;1821;50.936;6.854;2023-04-15T01:51:21;6.72;;;4.35;;
3613;SDS011;1821;50.936;6.854;2023-04-15T01:52:03;7.07;;;4.25;;
3613;SDS011;1821;50.936;6.854;2023-04-15T01:52:45;9.50;;;4.55;;
3613;SDS011;1821;50.936;6.854;2023-04-15T01:53:28;9.90;;;4.70;;
3613;SDS011;1821;50.936;6.854;2023-04-15T01:54:12;9.77;;;4.75;;
3613;SDS011;1821;50.936;6.854;2023-04-15T01:54:54;9.07;;;4.88;;
3613;SDS011;1821;50.936;6.854;2023-04-15T01:55:38;7.30;;;4.40;;
3613;SDS011;1821;50.936;6.854;2023-04-15T01:56:21;7.85;;;4.60;;
3613;SDS011;1821;50.936;6.854;2023-04-15T01:57:06;7.35;;;4.55;;
3613;SDS011;1821;50.936;6.854;2023-04-15T01:57:51;7.40;;;4.53;;
3613;SDS011;1821;50.936;6.854;2023-04-15T01:58:34;8.77;;;4.60;;
3613;SDS011;1821;50.936;6.854;2023-04-15T01:59:16;10.82;;;4.90;;
3613;SDS011;1821;50.936;6.854;2023-04-15T01:59:58;8.73;;;4.68;;
3613;SDS011;1821;50.936;6.854;2023-04-15T02:00:40;9.80;;;4.80;;
3613;SDS011;1821;50.936;6.854;2023-04-15T02:01:21;10.20;;;4.53;;
3613;SDS011;1821;50.936;6.854;2023-04-15T02:02:04;9.55;;;4.90;;
3613;SDS011;1821;50.936;6.854;2023-04-15T02:02:46;7.80;;;5.25;;
3613;SDS011;1821;50.936;6.854;2023-04-15T02:03:28;9.50;;;5.20;;
3613;SDS011;1821;50.936;6.854;2023-04-15T02:04:11;8.65;;;4.80;;
3613;SDS011;1821;50.936;6.854;2023-04-15T02:04:57;8.60;;;5.07;;
3613;SDS011;1821;50.936;6.854;2023-04-15T02:05:42;8.35;;;5.05;;
3613;SDS011;1821;50.936;6.854;2023-04-15T02:06:26;8.27;;;4.85;;
3613;SDS011;1821;50.936;6.854;2023-04-15T02:07:08;8.27;;;5.55;;
3613;SDS011;1821;50.936;6.854;2023-04-15T02:07:51;7.45;;;5.15;;
3613;SDS011;1821;50.936;6.854;2023-04-15T02:08:34;9.48;;;5.65;;
3613;SDS011;1821;50.936;6.854;2023-04-15T02:09:16;8.13;;;4.97;;
3613;SDS011;1821;50.936;6.854;2023-04-15T02:10:00;8.35;;;4.97;;
3613;SDS011;1821;50.936;6.854;2023-04-15T02:10:42;6.30;;;4.43;;
3613;SDS011;1821;50.936;6.854;2023-04-15T02:11:24;6.20;;;4.60;;
3613;SDS011;1821;50.936;6.854;2023-04-15T02:12:06;9.45;;;5.38;;
3613;SDS011;1821;50.936;6.854;2023-04-15T02:12:48;8.25;;;5.10;;
3613;SDS011;1821;50.936;6.854;2023-04-15T02:13:30;7.35;;;4.53;;
3613;SDS011;1821;50.936;6.854;2023-04-15T02:14:12;7.22;;;4.75;;
3613;SDS011;1821;50.936;6.854;2023-04-15T02:14:54;8.40;;;4.60;;
3613;SDS011;1821;50.936;6.854;2023-04-15T02:15:36;6.75;;;4.30;;
3613;SDS011;1821;50.936;6.854;2023-04-15T02:16:18;6.30;;;4.15;;
3613;SDS011;1821;50.936;6.854;2023-04-15T02:17:01;8.25;;;4.70;;
3613;SDS011;1821;50.936;6.854;2023-04-15T02:17:47;5.93;;;4.25;;
3613;SDS011;1821;50.936;6.854;2023-04-15T02:18:33;7.38;;;5.18;;
3613;SDS011;1821;50.936;6.854;2023-04-15T02:19:16;7.60;;;4.45;;
3613;SDS011;1821;50.936;6.854;2023-04-15T02:19:58;9.52;;;4.70;;
3613;SDS011;1821;50.936;6.854;2023-04-15T02:20:40;7.28;;;4.40;;
3613;SDS011;1821;50.936;6.854;2023-04-15T02:21:25;8.32;;;4.60;;
3613;SDS011;1821;50.936;6.854;2023-04-15T02:22:07;7.70;;;4.88;;
3613;SDS011;1821;50.936;6.854;2023-04-15T02:22:49;6.85;;;4.63;;
3613;SDS011;1821;50.936;6.854;2023-04-15T02:23:32;8.00;;;5.00;;
3613;SDS011;1821;50.936;6.854;2023-04-15T02:24:14;9.70;;;5.20;;
3613;SDS011;1821;50.936;6.854;2023-04-15T02:24:56;8.73;;;4.90;;
3613;SDS011;1821;50.936;6.854;2023-04-15T02:25:40;8.27;;;5.18;;
3613;SDS011;1821;50.936;6.854;2023-04-15T02:26:22;7.22;;;4.40;;
3613;SDS011;1821;50.936;6.854;2023-04-15T02:27:05;7.65;;;4.40;;
3613;SDS011;1821;50.936;6.854;2023-04-15T02:27:47;8.50;;;4.20;;
3613;SDS011;1821;50.936;6.854;2023-04-15T02:28:29;8.85;;;4.88;;
3613;SDS011;1821;50.936;6.854;2023-04-15T02:29:11;8.35;;;4.88;;
3613;SDS011;1821;50.936;6.854;2023-04-15T02:29:55;9.25;;;4.88;;
3613;SDS011;1821;50.936;6.854;2023-04-15T02:30:40;11.32;;;5.05;;
3613;SDS011;1821;50.936;6.854;2023-04-15T02:31:22;9.13;;;4.93;;
3613;SDS011;1821;50.936;6.854;2023-04-15T02:32:04;6.53;;;4.63;;
3613;SDS011;1821;50.936;6.854;2023-04-15T02:32:46;9.35;;;5.22;;
3613;SDS011;1821;50.936;6.854;2023-04-15T02:33:28;7.10;;;5.35;;
3613;SDS011;1821;50.936;6.854;2023-04-15T02:34:11;7.35;;;5.50;;
3613;SDS011;1821;50.936;6.854;2023-04-15T02:34:54;8.13;;;5.35;;
3613;SDS011;1821;50.936;6.854;2023-04-15T02:35:36;6.88;;;5.15;;
3613;SDS011;1821;50.936;6.854;2023-04-15T02:36:22;7.45;;;5.00;;
3613;SDS011;1821;50.936;6.854;2023-04-15T02:37:04;6.18;;;4.68;;
3613;SDS011;1821;50.936;6.854;2023-04-15T02:37:47;6.10;;;4.40;;
3613;SDS011;1821;50.936;6.854;2023-04-15T02:38:29;9.48;;;4.80;;
3613;SDS011;1821;50.936;6.854;2023-04-15T02:39:12;8.65;;;4.40;;
3613;SDS011;1821;50.936;6.854;2023-04-15T02:39:56;9.43;;;5.05;;
3613;SDS011;1821;50.936;6.854;2023-04-15T02:40:38;9.07;;;5.15;;
3613;SDS011;1821;50.936;6.854;2023-04-15T02:41:20;5.85;;;4.60;;
3613;SDS011;1821;50.936;6.854;2023-04-15T02:42:07;7.10;;;4.57;;
3613;SDS011;1821;50.936;6.854;2023-04-15T02:42:49;7.90;;;4.65;;
3613;SDS011;1821;50.936;6.854;2023-04-15T02:43:31;8.88;;;5.35;;
3613;SDS011;1821;50.936;6.854;2023-04-15T02:44:13;10.50;;;5.70;;
3613;SDS011;1821;50.936;6.854;2023-04-15T02:44:55;9.18;;;4.97;;
3613;SDS011;1821;50.936;6.854;2023-04-15T02:45:38;7.85;;;4.95;;
3613;SDS011;1821;50.936;6.854;2023-04-15T02:46:20;8.00;;;4.85;;
3613;SDS011;1821;50.936;6.854;2023-04-15T02:47:05;7.28;;;4.50;;
3613;SDS011;1821;50.936;6.854;2023-04-15T02:47:47;8.93;;;4.70;;
3613;SDS011;1821;50.936;6.854;2023-04-15T02:48:29;8.30;;;4.80;;
3613;SDS011;1821;50.936;6.854;2023-04-15T02:49:12;10.15;;;5.00;;
3613;SDS011;1821;50.936;6.854;2023-04-15T02:49:53;9.80;;;5.00;;
3613;SDS011;1821;50.936;6.854;2023-04-15T02:50:35;11.30;;;4.85;;
3613;SDS011;1821;50.936;6.854;2023-04-15T02:51:20;9.10;;;5.03;;
3613;SDS011;1821;50.936;6.854;2023-04-15T02:52:03;6.72;;;4.32;;
3613;SDS011;1821;50.936;6.854;2023-04-15T02:52:47;6.72;;;4.68;;
3613;SDS011;1821;50.936;6.854;2023-04-15T02:53:29;9.80;;;5.53;;
3613;SDS011;1821;50.936;6.854;2023-04-15T02:54:11;8.25;;;5.10;;
3613;SDS011;1821;50.936;6.854;2023-04-15T02:54:55;7.68;;;4.60;;
3613;SDS011;1821;50.936;6.854;2023-04-15T02:55:40;7.70;;;5.05;;
3613;SDS011;1821;50.936;6.854;2023-04-15T02:56:25;7.53;;;5.10;;
3613;SDS011;1821;50.936;6.854;2023-04-15T02:57:08;6.82;;;4.93;;
3613;SDS011;1821;50.936;6.854;2023-04-15T02:57:51;6.88;;;4.40;;
3613;SDS011;1821;50.936;6.854;2023-04-15T02:58:34;7.57;;;4.60;;
3613;SDS011;1821;50.936;6.854;2023-04-15T02:59:16;8.52;;;5.20;;
3613;SDS011;1821;50.936;6.854;2023-04-15T02:59:58;9.18;;;5.22;;
3613;SDS011;1821;50.936;6.854;2023-04-15T03:00:42;8.88;;;5.00;;
3613;SDS011;1821;50.936;6.854;2023-04-15T03:01:24;7.65;;;4.80;;
3613;SDS011;1821;50.936;6.854;2023-04-15T03:02:07;6.25;;;4.35;;
3613;SDS011;1821;50.936;6.854;2023-04-15T03:02:49;6.80;;;4.43;;
3613;SDS011;1821;50.936;6.854;2023-04-15T03:03:36;7.80;;;4.95;;
3613;SDS011;1821;50.936;6.854;2023-04-15T03:04:18;6.85;;;4.80;;
3613;SDS011;1821;50.936;6.854;2023-04-15T03:05:01;8.02;;;5.40;;
3613;SDS011;1821;50.936;6.854;2023-04-15T03:05:45;9.45;;;5.00;;
3613;SDS011;1821;50.936;6.854;2023-04-15T03:06:27;7.95;;;4.60;;
3613;SDS011;1821;50.936;6.854;2023-04-15T03:07:12;6.10;;;4.70;;
3613;SDS011;1821;50.936;6.854;2023-04-15T03:07:54;7.50;;;4.50;;
3613;SDS011;1821;50.936;6.854;2023-04-15T03:08:37;8.23;;;4.80;;
3613;SDS011;1821;50.936;6.854;2023-04-15T03:09:22;9.50;;;5.10;;
3613;SDS011;1821;50.936;6.854;2023-04-15T03:10:04;7.10;;;4.70;;
3613;SDS011;1821;50.936;6.854;2023-04-15T03:10:47;8.70;;;5.00;;
3613;SDS011;1821;50.936;6.854;2023-04-15T03:11:32;8.85;;;4.85;;
3613;SDS011;1821;50.936;6.854;2023-04-15T03:12:16;8.52;;;4.75;;
3613;SDS011;1821;50.936;6.854;2023-04-15T03:12:58;7.13;;;5.28;;
3613;SDS011;1821;50.936;6.854;2023-04-15T03:13:41;7.20;;;5.20;;
3613;SDS011;1821;50.936;6.854;2023-04-15T03:14:25;7.45;;;4.93;;
3613;SDS011;1821;50.936;6.854;2023-04-15T03:15:07;9.07;;;5.00;;
3613;SDS011;1821;50.936;6.854;2023-04-15T03:15:52;6.32;;;4.40;;
3613;SDS011;1821;50.936;6.854;2023-04-15T03:16:34;7.10;;;4.70;;
3613;SDS011;1821;50.936;6.854;2023-04-15T03:17:16;6.97;;;4.80;;
3613;SDS011;1821;50.936;6.854;2023-04-15T03:18:01;7.18;;;5.13;;
3613;SDS011;1821;50.936;6.854;2023-04-15T03:18:43;8.23;;;5.10;;
3613;SDS011;1821;50.936;6.854;2023-04-15T03:19:27;8.73;;;5.10;;
3613;SDS011;1821;50.936;6.854;2023-04-15T03:20:09;10.38;;;4.90;;
3613;SDS011;1821;50.936;6.854;2023-04-15T03:20:51;9.02;;;4.93;;
3613;SDS011;1821;50.936;6.854;2023-04-15T03:21:36;9.32;;;4.97;;
3613;SDS011;1821;50.936;6.854;2023-04-15T03:22:18;7.90;;;5.10;;
3613;SDS011;1821;50.936;6.854;2023-04-15T03:23:02;8.88;;;4.90;;
3613;SDS011;1821;50.936;6.854;2023-04-15T03:23:45;8.07;;;5.10;;
3613;SDS011;1821;50.936;6.854;2023-04-15T03:24:28;10.50;;;4.78;;
3613;SDS011;1821;50.936;6.854;2023-04-15T03:25:12;9.63;;;5.80;;
3613;SDS011;1821;50.936;6.854;2023-04-15T03:26:00;9.10;;;5.20;;
3613;SDS011;1821;50.936;6.854;2023-04-15T03:26:43;8.27;;;5.22;;
3613;SDS011;1821;50.936;6.854;2023-04-15T03:27:27;6.38;;;4.63;;
3613;SDS011;1821;50.936;6.854;2023-04-15T03:28:09;6.50;;;4.40;;
3613;SDS011;1821;50.936;6.854;2023-04-15T03:28:52;9.00;;;5.10;;
3613;SDS011;1821;50.936;6.854;2023-04-15T03:29:34;7.35;;;4.57;;
3613;SDS011;1821;50.936;6.854;2023-04-15T03:30:16;7.70;;;4.60;;
3613;SDS011;1821;50.936;6.854;2023-04-15T03:30:58;7.13;;;4.88;;
3613;SDS011;1821;50.936;6.854;2023-04-15T03:31:41;7.00;;;4.30;;
3613;SDS011;1821;50.936;6.854;2023-04-15T03:32:23;7.32;;;4.80;;
3613;SDS011;1821;50.936;6.854;2023-04-15T03:33:07;10.63;;;5.05;;
3613;SDS011;1821;50.936;6.854;2023-04-15T03:33:49;8.38;;;4.65;;
3613;SDS011;1821;50.936;6.854;2023-04-15T03:34:31;8.77;;;4.50;;
3613;SDS011;1821;50.936;6.854;2023-04-15T03:35:15;7.50;;;5.10;;
3613;SDS011;1821;50.936;6.854;2023-04-15T03:35:57;6.72;;;4.50;;
3613;SDS011;1821;50.936;6.854;2023-04-15T03:36:39;5.60;;;4.40;;
3613;SDS011;1821;50.936;6.854;2023-04-15T03:37:21;8.48;;;4.90;;
3613;SDS011;1821;50.936;6.854;2023-04-15T03:38:03;7.20;;;4.50;;
3613;SDS011;1821;50.936;6.854;2023-04-15T03:38:47;6.22;;;4.32;;
3613;SDS011;1821;50.936;6.854;2023-04-15T03:39:30;7.57;;;4.68;;
3613;SDS011;1821;50.936;6.854;2023-04-15T03:40:12;8.98;;;5.07;;
3613;SDS011;1821;50.936;6.854;2023-04-15T03:40:54;8.52;;;5.30;;
3613;SDS011;1821;50.936;6.854;2023-04-15T03:41:36;9.38;;;5.55;;
3613;SDS011;1821;50.936;6.854;2023-04-15T03:42:17;7.75;;;4.30;;
3613;SDS011;1821;50.936;6.854;2023-04-15T03:43:00;8.48;;;4.90;;
3613;SDS011;1821;50.936;6.854;2023-04-15T03:43:42;7.95;;;5.40;;
3613;SDS011;1821;50.936;6.854;2023-04-15T03:44:27;8.40;;;5.40;;
3613;SDS011;1821;50.936;6.854;2023-04-15T03:45:09;7.65;;;4.60;;
3613;SDS011;1821;50.936;6.854;2023-04-15T03:45:51;9.38;;;5.00;;
3613;SDS011;1821;50.936;6.854;2023-04-15T03:46:36;6.82;;;5.10;;
3613;SDS011;1821;50.936;6.854;2023-04-15T03:47:18;7.45;;;4.95;;
3613;SDS011;1821;50.936;6.854;2023-04-15T03:48:00;8.00;;;5.28;;
3613;SDS011;1821;50.936;6.854;2023-04-15T03:48:45;6.38;;;4.82;;
3613;SDS011;1821;50.936;6.854;2023-04-15T03:49:28;8.20;;;4.80;;
3613;SDS011;1821;50.936;6.854;2023-04-15T03:50:12;10.60;;;5.35;;
3613;SDS011;1821;50.936;6.854;2023-04-15T03:50:54;9.68;;;5.65;;
3613;SDS011;1821;50.936;6.854;2023-04-15T03:51:36;9.27;;;4.80;;
3613;SDS011;1821;50.936;6.854;2023-04-15T03:52:20;9.25;;;5.30;;
3613;SDS011;1821;50.936;6.854;2023-04-15T03:53:02;7.90;;;5.38;;
3613;SDS011;1821;50.936;6.854;2023-04-15T03:53:44;9.02;;;5.28;;
3613;SDS011;1821;50.936;6.854;2023-04-15T03:54:26;9.25;;;5.50;;
3613;SDS011;1821;50.936;6.854;2023-04-15T03:55:08;8.05;;;5.00;;
3613;SDS011;1821;50.936;6.854;2023-04-15T03:55:52;11.88;;;5.22;;
3613;SDS011;1821;50.936;6.854;2023-04-15T03:56:34;7.63;;;5.20;;
3613;SDS011;1821;50.936;6.854;2023-04-15T03:57:16;9.73;;;5.72;;
3613;SDS011;1821;50.936;6.854;2023-04-15T03:58:00;12.13;;;5.20;;
3613;SDS011;1821;50.936;6.854;2023-04-15T03:58:42;8.52;;;5.40;;
3613;SDS011;1821;50.936;6.854;2023-04-15T03:59:25;7.68;;;5.10;;
3613;SDS011;1821;50.936;6.854;2023-04-15T04:00:07;8.33;;;4.70;;
3613;SDS011;1821;50.936;6.854;2023-04-15T04:00:52;6.63;;;4.70;;
3613;SDS011;1821;50.936;6.854;2023-04-15T04:01:35;7.07;;;4.82;;
3613;SDS011;1821;50.936;6.854;2023-04-15T04:02:17;7.80;;;5.05;;
3613;SDS011;1821;50.936;6.854;2023-04-15T04:02:59;9.23;;;5.40;;
3613;SDS011;1821;50.936;6.854;2023-04-15T04:03:42;7.43;;;5.05;;
3613;SDS011;1821;50.936;6.854;2023-04-15T04:04:24;7.20;;;4.68;;
3613;SDS011;1821;50.936;6.854;2023-04-15T04:05:06;7.95;;;5.10;;
3613;SDS011;1821;50.936;6.854;2023-04-15T04:05:48;9.77;;;4.93;;
3613;SDS011;1821;50.936;6.854;2023-04-15T04:06:31;9.20;;;4.90;;
3613;SDS011;1821;50.936;6.854;2023-04-15T04:07:15;7.10;;;4.90;;
3613;SDS011;1821;50.936;6.854;2023-04-15T04:07:58;8.00;;;5.70;;
3613;SDS011;1821;50.936;6.854;2023-04-15T04:08:40;9.32;;;4.75;;
3613;SDS011;1821;50.936;6.854;2023-04-15T04:09:22;7.88;;;4.50;;
3613;SDS011;1821;50.936;6.854;2023-04-15T04:10:08;7.70;;;4.90;;
3613;SDS011;1821;50.936;6.854;2023-04-15T04:10:52;8.77;;;4.82;;
3613;SDS011;1821;50.936;6.854;2023-04-15T04:11:35;7.60;;;4.68;;
3613;SDS011;1821;50.936;6.854;2023-04-15T04:12:17;8.75;;;4.35;;
3613;SDS011;1821;50.936;6.854;2023-04-15T04:13:00;9.23;;;4.68;;
3613;SDS011;1821;50.936;6.854;2023-04-15T04:13:42;8.88;;;4.90;;
3613;SDS011;1821;50.936;6.854;2023-04-15T04:14:24;9.93;;;5.15;;
3613;SDS011;1821;50.936;6.854;2023-04-15T04:15:09;7.80;;;5.13;;
3613;SDS011;1821;50.936;6.854;2023-04-15T04:15:52;8.30;;;4.75;;
3613;SDS011;1821;50.936;6.854;2023-04-15T04:16:34;8.68;;;5.25;;
3613;SDS011;1821;50.936;6.854;2023-04-15T04:17:16;9.70;;;5.40;;
3613;SDS011;1821;50.936;6.854;2023-04-15T04:17:58;10.30;;;5.28;;
3613;SDS011;1821;50.936;6.854;2023-04-15T04:18:41;7.88;;;4.72;;
3613;SDS011;1821;50.936;6.854;2023-04-15T04:19:22;9.27;;;5.07;;
3613;SDS011;1821;50.936;6.854;2023-04-15T04:20:05;10.35;;;5.07;;
3613;SDS011;1821;50.936;6.854;2023-04-15T04:20:47;7.20;;;4.57;;
3613;SDS011;1821;50.936;6.854;2023-04-15T04:21:30;8.30;;;5.60;;
3613;SDS011;1821;50.936;6.854;2023-04-15T04:22:14;8.45;;;5.25;;
3613;SDS011;1821;50.936;6.854;2023-04-15T04:22:56;6.85;;;5.13;;
3613;SDS011;1821;50.936;6.854;2023-04-15T04:23:38;8.55;;;5.30;;
3613;SDS011;1821;50.936;6.854;2023-04-15T04:24:22;9.70;;;5.20;;
3613;SDS011;1821;50.936;6.854;2023-04-15T04:25:04;11.05;;;4.97;;
3613;SDS011;1821;50.936;6.854;2023-04-15T04:25:47;9.25;;;4.78;;